»·PEaware :: N111LW MMES-KSAN

N111LW :: MMES-KSAN

FLIGHT INFORMATION

Flight Status: Arrived
Operator: Privately registered:
United States
More flights under this callsign
Pilot: Lee W. (44)
Aircraft: CESSNA 172 SKYHAWK
(C172)
More flights by this aircraft type
Origin: MMES Ensenada Intl
Mexico
Destination: KSAN San Diego Intl-Lindbergh
United States
More flights between these airports :: More routes between these airports
Route: MZB
File this flight plan on PilotEdge
Remarks:
Altitude:
(Current/Filed)
6,000ft
Speed:
(Current/Filed)
110kts
Departed: 12-Jul-14 07:58 AM
Arrived: 12-Jul-14 08:50 AM
Distance/Time
Traveled:
63nm/0:51
Distance/Time
To Go:
Arrived

Flight Plot

Page will automatically refresh every two minutes.


Map Options




Map Legend


Flown Route
Filed Route
Departure Airport
Arrival Airport
Navaid (VOR, NDB)
Fix

Horizontal Profiles

Position Reports

Time Latitude Longitude Heading Altitude Ground
Speed
12-Jul-14 07:40 31.797460 -116.605477 210 69ft 0kts
12-Jul-14 07:41 31.797460 -116.605477 210 69ft 0kts
12-Jul-14 07:42 31.797460 -116.605477 210 69ft 0kts
12-Jul-14 07:43 31.797460 -116.605477 210 69ft 0kts
12-Jul-14 07:44 31.797460 -116.605477 210 69ft 0kts
12-Jul-14 07:45 31.797460 -116.605477 210 69ft 0kts
12-Jul-14 07:46 31.797460 -116.605477 210 69ft 0kts
12-Jul-14 07:47 31.797460 -116.605477 210 69ft 0kts
12-Jul-14 07:48 31.797460 -116.605477 210 69ft 0kts
12-Jul-14 07:49 31.797460 -116.605477 210 69ft 0kts
12-Jul-14 07:50 31.797460 -116.605477 209 69ft 0kts
12-Jul-14 07:51 31.797460 -116.605477 209 69ft 0kts
12-Jul-14 07:52 31.797460 -116.605477 209 69ft 0kts
12-Jul-14 07:53 31.797460 -116.605477 209 69ft 0kts
12-Jul-14 07:54 31.797460 -116.605477 209 69ft 0kts
12-Jul-14 07:55 31.798400 -116.608615 314 69ft 14kts
12-Jul-14 07:56 31.798400 -116.608771 121 69ft 0kts
12-Jul-14 07:57 31.791311 -116.596097 134 330ft 72kts
12-Jul-14 07:58 31.779572 -116.606001 296 971ft 72kts
12-Jul-14 07:59 31.796175 -116.618658 329 1595ft 71kts
12-Jul-14 08:00 31.818897 -116.632712 332 1883ft 103kts
12-Jul-14 08:01 31.841534 -116.647681 333 2536ft 86kts
12-Jul-14 08:02 31.863577 -116.660167 333 3066ft 89kts
12-Jul-14 08:03 31.885772 -116.673224 332 3602ft 89kts
12-Jul-14 08:04 31.907788 -116.686378 332 4117ft 89kts
12-Jul-14 08:05 31.929856 -116.699662 332 4620ft 89kts
12-Jul-14 08:06 31.948298 -116.710893 324 5033ft 89kts
12-Jul-14 08:07 31.968528 -116.735285 313 5592ft 89kts
12-Jul-14 08:08 31.985663 -116.756174 313 6004ft 93kts
12-Jul-14 08:09 32.001301 -116.775364 313 6000ft 103kts
12-Jul-14 08:10 32.021701 -116.800420 313 5998ft 107kts
12-Jul-14 08:11 32.042428 -116.825876 313 5997ft 108kts
12-Jul-14 08:12 32.065953 -116.847665 325 5997ft 108kts
12-Jul-14 08:13 32.090901 -116.867277 331 5997ft 108kts
12-Jul-14 08:14 32.117560 -116.883879 332 5997ft 108kts
12-Jul-14 08:15 32.144217 -116.900554 332 5996ft 108kts
12-Jul-14 08:16 32.170652 -116.917199 332 5996ft 107kts
12-Jul-14 08:17 32.196941 -116.933851 332 5995ft 107kts
12-Jul-14 08:18 32.220982 -116.954322 324 5994ft 107kts
12-Jul-14 08:19 32.244233 -116.974551 324 5993ft 106kts
12-Jul-14 08:20 32.267780 -116.995119 324 5991ft 105kts
12-Jul-14 08:21 32.290789 -117.015244 324 5990ft 104kts
12-Jul-14 08:22 32.313555 -117.035160 324 5990ft 104kts
12-Jul-14 08:23 32.336836 -117.055479 324 5989ft 103kts
12-Jul-14 08:24 32.360805 -117.073948 331 5988ft 102kts
12-Jul-14 08:25 32.386478 -117.086063 347 5988ft 101kts
12-Jul-14 08:26 32.414309 -117.092393 348 5988ft 101kts
12-Jul-14 08:27 32.441983 -117.098516 348 5988ft 101kts
12-Jul-14 08:28 32.468404 -117.104248 347 5987ft 101kts
12-Jul-14 08:29 32.495604 -117.110037 347 5989ft 102kts
12-Jul-14 08:30 32.491943 -117.084849 126 5361ft 110kts
12-Jul-14 08:31 32.475766 -117.057039 120 4776ft 94kts
12-Jul-14 08:32 32.478435 -117.031897 20 4364ft 85kts
12-Jul-14 08:33 32.501279 -117.025113 12 4036ft 87kts
12-Jul-14 08:34 32.520589 -117.020883 359 3998ft 61kts
12-Jul-14 08:35 32.541111 -117.020422 359 4015ft 89kts
12-Jul-14 08:36 32.559481 -117.019991 359 3452ft 116kts
12-Jul-14 08:37 32.586085 -117.019565 359 2982ft 89kts
12-Jul-14 08:38 32.604962 -117.019146 359 2990ft 73kts
12-Jul-14 08:39 32.624937 -117.018746 359 2997ft 86kts
12-Jul-14 08:40 32.642001 -117.031034 324 2989ft 87kts
12-Jul-14 08:41 32.658371 -117.045171 324 2990ft 84kts
12-Jul-14 08:42 32.672203 -117.058744 313 2824ft 81kts
12-Jul-14 08:43 32.685028 -117.076751 313 2536ft 70kts
12-Jul-14 08:44 32.698426 -117.092334 314 1976ft 73kts
12-Jul-14 08:45 32.708992 -117.111961 297 1632ft 72kts
12-Jul-14 08:46 32.717618 -117.131226 300 1356ft 67kts
12-Jul-14 08:47 32.724450 -117.151526 288 949ft 66kts
12-Jul-14 08:48 32.728490 -117.169118 287 526ft 68kts
12-Jul-14 08:49 32.733022 -117.187381 293 21ft 15kts
12-Jul-14 08:50 32.733999 -117.188023 29 21ft 0kts
12-Jul-14 08:51 32.734136 -117.187319 98 21ft 7kts
12-Jul-14 08:52 32.732749 -117.181519 105 21ft 23kts
12-Jul-14 08:53 32.732240 -117.177232 59 21ft 0kts
12-Jul-14 08:54 32.732240 -117.177232 59 21ft 0kts
12-Jul-14 08:55 32.732240 -117.177232 59 21ft 0kts
12-Jul-14 08:56 32.732240 -117.177232 59 21ft 0kts
12-Jul-14 08:57 32.732240 -117.177232 59 21ft 0kts
12-Jul-14 08:58 32.732240 -117.177232 59 21ft 0kts
12-Jul-14 08:59 32.732240 -117.177232 59 21ft 0kts
12-Jul-14 09:00 32.732240 -117.177232 59 21ft 0kts
12-Jul-14 09:01 32.732240 -117.177232 59 21ft 0kts
12-Jul-14 09:02 32.732240 -117.177232 59 21ft 0kts
12-Jul-14 09:03 32.732240 -117.177232 59 21ft 0kts

Navigation Log

Ident Type
Flight plan parsing failed, navigation log unavailable